Gornji Humac, Croatia
Current Conditions -  °F | °C
As of 1:30 AM on Sunday 26 Oct 2014 (Local Time) from LDSP Reporting Station
Clear Clear  
Wind Chill: 55°   Ceiling: Unl
Heat Index: 55°   Visibility: 6mi
Dew Point: 37°   Wind: 6mph
Humidity: 51%   Direction: 40°NE
Pressure: 30.12"   Gusts: NA
Location:  43.29°N, 16.71°E
Report Text: LDSP 252330Z 04005KT 350V090 CAVOK 13/03 Q1020 NOSIG
Loading
Personal Weather Stations






























Interactive Weather Map
Tropical Storm Tracking
New forecast layout! Learn more

10-Day Weather Forecast

Advertisements
Track Severe Weather on mobile